createdAt,value
2023-04-05T00:14:49.802Z,40.63
2023-04-05T00:17:17.993Z,40.70
2023-04-05T00:19:45.143Z,40.69
2023-04-05T00:22:11.705Z,41.08
2023-04-05T00:24:41.976Z,40.83
2023-04-05T00:27:08.635Z,41.18
2023-04-05T00:35:12.705Z,41.15
2023-04-05T00:37:39.310Z,41.52
2023-04-05T00:40:06.552Z,41.47
2023-04-05T00:42:33.145Z,41.54
2023-04-05T00:45:56.386Z,41.68
2023-04-05T00:48:42.995Z,41.63
2023-04-05T00:51:11.900Z,42.10
2023-04-05T00:53:40.811Z,41.95
2023-04-05T00:56:08.402Z,41.68
2023-04-05T00:58:35.022Z,41.86
2023-04-05T01:01:13.911Z,42.30
2023-04-05T01:06:28.466Z,42.30
2023-04-05T01:09:10.552Z,42.26
2023-04-05T01:11:40.326Z,42.29
2023-04-05T01:14:06.918Z,42.73
2023-04-05T01:16:33.596Z,42.39
2023-04-05T01:23:37.820Z,42.20
2023-04-05T01:29:03.668Z,43.19
2023-04-05T01:31:51.598Z,42.93
2023-04-05T01:35:00.041Z,42.73
2023-04-05T01:37:32.882Z,42.83
2023-04-05T01:40:15.971Z,42.92
2023-04-05T01:42:46.170Z,43.05
2023-04-05T01:45:12.764Z,42.96
2023-04-05T01:47:39.495Z,43.08
2023-04-05T01:53:51.697Z,44.14
2023-04-05T01:56:18.250Z,43.63
2023-04-05T01:58:45.122Z,43.61
2023-04-05T02:01:12.062Z,43.73
2023-04-05T02:03:38.737Z,43.13
2023-04-05T02:06:06.071Z,42.66
2023-04-05T02:40:15.347Z,42.91
2023-04-05T02:42:42.249Z,43.09
2023-04-05T02:45:09.175Z,43.49
2023-04-05T02:47:36.000Z,44.03
2023-04-05T02:50:02.708Z,44.44
2023-04-05T02:55:24.859Z,44.08
2023-04-05T02:57:51.450Z,44.62
2023-04-05T03:00:18.664Z,44.74
2023-04-05T03:02:45.384Z,44.86
2023-04-05T03:05:14.002Z,44.88
2023-04-05T03:07:42.615Z,45.13
2023-04-05T03:13:46.887Z,45.71
2023-04-05T03:16:13.456Z,46.34
2023-04-05T03:18:40.079Z,46.20
2023-04-05T03:21:06.750Z,46.47
2023-04-05T03:23:34.011Z,46.20
2023-04-05T03:26:01.466Z,46.66
2023-04-05T03:31:09.707Z,47.34
2023-04-05T03:33:36.340Z,47.14
2023-04-05T03:36:03.108Z,46.67
2023-04-05T03:38:32.623Z,46.55
2023-04-05T03:40:59.199Z,46.59
2023-04-05T03:47:21.857Z,47.66
2023-04-05T04:07:02.798Z,47.18
2023-04-05T04:09:29.929Z,47.29
2023-04-05T04:11:57.202Z,47.40
2023-04-05T04:14:24.643Z,47.35
2023-04-05T04:16:51.304Z,48.22
2023-04-05T04:19:46.798Z,48.10
2023-04-05T04:22:38.878Z,48.19
2023-04-05T04:25:10.474Z,47.95
2023-04-05T04:27:41.958Z,48.27
2023-04-05T04:30:10.819Z,49.02
2023-04-05T04:32:54.141Z,48.61
2023-04-05T04:35:24.690Z,48.33
2023-04-05T04:40:46.901Z,48.90
2023-04-05T04:43:17.475Z,48.61
2023-04-05T04:45:47.062Z,48.61
2023-04-05T04:48:17.249Z,48.59
2023-04-05T04:50:44.688Z,48.61
2023-04-05T04:54:03.996Z,48.99
2023-04-05T04:56:52.378Z,48.34
2023-04-05T04:59:19.032Z,47.85
2023-04-05T05:01:46.259Z,48.19
2023-04-05T05:04:12.915Z,48.17
2023-04-05T05:06:55.838Z,47.65
2023-04-05T05:09:22.375Z,46.95
2023-04-05T05:11:48.987Z,46.74
2023-04-05T05:14:15.737Z,46.67
2023-04-05T05:16:42.417Z,46.72
2023-04-05T05:19:09.003Z,46.67
2023-04-05T05:21:36.856Z,46.61
2023-04-05T05:24:04.492Z,46.35
2023-04-05T05:29:06.547Z,46.22
2023-04-05T05:31:33.841Z,45.89
2023-04-05T05:34:00.485Z,45.58
2023-04-05T05:36:28.287Z,45.23
2023-04-05T05:38:54.924Z,44.83
2023-04-05T05:41:22.344Z,44.36
2023-04-05T05:43:48.911Z,44.53
2023-04-05T05:46:16.094Z,43.89
2023-04-05T05:48:42.748Z,43.54
2023-04-05T05:51:12.051Z,43.21
2023-04-05T05:53:40.138Z,43.15
2023-04-05T05:56:11.259Z,42.47
2023-04-05T05:58:38.154Z,42.01
2023-04-05T06:01:11.986Z,42.34
2023-04-05T06:03:38.815Z,41.92
2023-04-05T06:06:08.452Z,41.18
2023-04-05T06:08:35.100Z,40.93
2023-04-05T06:11:01.771Z,40.34
2023-04-05T06:13:46.877Z,40.55
2023-04-05T06:16:13.512Z,40.35
2023-04-05T06:18:40.176Z,39.04
2023-04-05T06:21:06.750Z,35.99
2023-04-05T06:27:16.480Z,35.95
2023-04-05T06:29:43.042Z,35.38
2023-04-05T06:32:09.705Z,35.50
2023-04-05T06:34:36.529Z,34.64
2023-04-05T06:37:03.558Z,34.48
2023-04-05T06:39:30.172Z,34.41
2023-04-05T06:41:57.844Z,33.98
2023-04-05T06:44:24.505Z,35.07
2023-04-05T06:46:51.948Z,36.42
2023-04-05T06:49:18.614Z,36.39
2023-04-05T06:51:45.689Z,35.57
2023-04-05T06:54:12.287Z,35.62
2023-04-05T06:56:44.840Z,35.21
2023-04-05T06:59:11.467Z,35.18
2023-04-05T07:01:38.158Z,36.02
2023-04-05T07:04:04.970Z,36.33
2023-04-05T07:06:34.564Z,36.81
2023-04-05T07:09:01.992Z,36.64
2023-04-05T07:11:28.690Z,36.04
2023-04-05T07:13:55.358Z,36.73
2023-04-05T07:16:23.751Z,36.11
2023-04-05T07:18:51.201Z,36.02
2023-04-05T07:21:17.777Z,36.73
2023-04-05T07:23:44.363Z,35.80
2023-04-05T07:26:12.449Z,35.34
2023-04-05T07:28:39.131Z,35.24
2023-04-05T07:31:07.042Z,35.24
2023-04-05T07:33:34.240Z,34.82
2023-04-05T07:36:01.082Z,34.90
2023-04-05T07:38:29.720Z,35.26
2023-04-05T07:40:56.548Z,34.67
2023-04-05T07:43:25.514Z,34.99
2023-04-05T07:45:53.549Z,34.31
2023-04-05T07:48:21.174Z,34.70
2023-04-05T07:50:49.185Z,35.14
2023-04-05T07:53:17.029Z,34.44
2023-04-05T07:55:43.596Z,34.49
2023-04-05T07:58:11.068Z,33.62
2023-04-05T08:00:38.513Z,32.86
2023-04-05T08:03:05.384Z,30.35
2023-04-05T08:05:32.041Z,29.89
2023-04-05T08:07:58.850Z,29.97
2023-04-05T08:10:26.206Z,29.16
2023-04-05T08:12:53.548Z,29.29
2023-04-05T08:15:20.150Z,29.28
2023-04-05T08:17:47.115Z,28.46
2023-04-05T08:20:13.817Z,28.47
2023-04-05T08:22:40.602Z,28.22
2023-04-05T08:25:08.019Z,28.27
2023-04-05T08:27:34.614Z,27.77
2023-04-05T08:30:01.417Z,28.97
2023-04-05T08:35:23.789Z,32.40
2023-04-05T08:37:50.900Z,30.33
2023-04-05T08:40:17.684Z,29.64
2023-04-05T08:43:12.337Z,30.22
2023-04-05T08:45:50.227Z,32.66
2023-04-05T08:48:17.799Z,29.80
2023-04-05T08:50:55.930Z,29.94
2023-04-05T08:53:23.959Z,28.90
2023-04-05T08:55:53.360Z,29.73
2023-04-05T08:58:25.465Z,28.28
2023-04-05T09:00:57.522Z,27.81
2023-04-05T09:03:29.911Z,27.57
2023-04-05T09:05:59.502Z,27.88
2023-04-05T09:08:26.237Z,28.65
2023-04-05T09:10:52.907Z,27.75
2023-04-05T09:13:19.911Z,26.59
2023-04-05T09:15:47.191Z,27.38
2023-04-05T09:18:25.481Z,26.76
2023-04-05T09:23:29.151Z,27.57
2023-04-05T09:25:55.934Z,27.34
2023-04-05T09:28:22.656Z,27.75
2023-04-05T09:30:49.355Z,27.43
2023-04-05T09:33:20.955Z,33.00
2023-04-05T09:35:51.337Z,31.12
2023-04-05T09:38:18.003Z,33.20
2023-04-05T09:40:45.932Z,31.12
2023-04-05T09:43:14.682Z,30.01
2023-04-05T09:45:42.922Z,29.85
2023-04-05T09:48:10.214Z,32.95
2023-04-05T09:50:37.012Z,32.05
2023-04-05T09:53:16.579Z,29.52
2023-04-05T09:55:43.972Z,28.46
2023-04-05T09:58:23.838Z,28.14
2023-04-05T10:01:17.083Z,28.36
2023-04-05T10:04:04.546Z,30.42
2023-04-05T10:06:49.434Z,29.19
2023-04-05T10:09:18.082Z,29.14
2023-04-05T10:11:45.999Z,29.50
2023-04-05T10:14:12.587Z,31.69
2023-04-05T10:19:24.471Z,30.33
2023-04-05T10:21:54.169Z,30.55
2023-04-05T10:24:23.564Z,31.07
2023-04-05T10:27:16.137Z,29.16
2023-04-05T10:30:06.434Z,29.73
2023-04-05T10:37:08.645Z,33.09
2023-04-05T10:39:42.725Z,30.66
2023-04-05T10:42:24.064Z,31.21
2023-04-05T10:45:02.438Z,29.30
2023-04-05T10:47:32.346Z,28.19
2023-04-05T10:50:03.769Z,27.56
2023-04-05T10:52:31.048Z,27.55
2023-04-05T10:55:02.923Z,27.31
2023-04-05T10:57:30.332Z,30.03
2023-04-05T11:00:00.190Z,32.42
2023-04-05T11:02:29.711Z,27.19
2023-04-05T11:04:57.153Z,26.32
2023-04-05T11:07:24.106Z,31.39
2023-04-05T11:10:04.430Z,29.54
2023-04-05T11:12:49.353Z,26.95
2023-04-05T11:15:29.221Z,26.63
2023-04-05T11:18:18.079Z,29.93
2023-04-05T11:20:51.897Z,28.86
2023-04-05T11:23:23.398Z,29.37
2023-04-05T11:26:03.108Z,28.90
2023-04-05T11:28:32.050Z,31.00
2023-04-05T11:31:13.133Z,29.32
2023-04-05T11:33:56.917Z,26.83
2023-04-05T11:36:52.276Z,27.62
2023-04-05T11:39:18.897Z,27.39
2023-04-05T11:42:02.118Z,32.67
2023-04-05T11:44:30.892Z,28.13
2023-04-05T11:46:59.946Z,27.93
2023-04-05T11:49:28.777Z,27.72
2023-04-05T11:51:55.750Z,27.91
2023-04-05T11:54:50.273Z,27.78
2023-04-05T11:57:22.474Z,26.57
2023-04-05T11:59:53.680Z,27.03
2023-04-05T12:02:21.477Z,28.96
2023-04-05T12:04:58.594Z,26.88
2023-04-05T12:07:32.040Z,27.00
2023-04-05T12:10:11.083Z,26.39
2023-04-05T12:12:39.861Z,26.67
2023-04-05T12:15:09.044Z,27.69
2023-04-05T12:17:43.221Z,27.33
2023-04-05T12:20:11.676Z,30.05
2023-04-05T12:22:39.068Z,28.96
2023-04-05T12:25:06.297Z,26.28
2023-04-05T12:27:34.107Z,25.33
2023-04-05T12:30:17.893Z,25.76
2023-04-05T12:32:52.579Z,26.21
2023-04-05T12:35:44.540Z,26.11
2023-04-05T12:38:15.952Z,25.28
2023-04-05T12:40:42.621Z,23.96
2023-04-05T12:43:09.700Z,24.48
2023-04-05T12:45:40.520Z,24.99
2023-04-05T12:48:36.936Z,25.81
2023-04-05T12:51:35.728Z,29.11
2023-04-05T12:54:04.248Z,24.87
2023-04-05T12:56:30.963Z,23.92
2023-04-05T12:58:57.535Z,24.21
2023-04-05T13:01:24.145Z,24.47
2023-04-05T13:03:53.370Z,25.69
2023-04-05T13:06:23.463Z,25.20
2023-04-05T13:08:50.314Z,25.95
2023-04-05T13:11:17.062Z,25.89
2023-04-05T13:13:44.070Z,24.12
2023-04-05T13:16:10.770Z,24.39
2023-04-05T13:18:37.581Z,25.26
2023-04-05T13:21:10.138Z,24.86
2023-04-05T13:23:37.964Z,23.97
2023-04-05T13:26:05.357Z,23.69
2023-04-05T13:28:32.912Z,24.67
2023-04-05T13:30:59.806Z,25.40
2023-04-05T13:33:26.449Z,23.43
2023-04-05T13:35:53.059Z,23.61
2023-04-05T13:38:19.757Z,23.63
2023-04-05T13:40:46.477Z,24.84
2023-04-05T13:43:13.410Z,24.39
2023-04-05T13:45:40.201Z,25.75
2023-04-05T13:48:07.023Z,24.92
2023-04-05T13:50:35.677Z,25.07
2023-04-05T13:53:02.258Z,25.06
2023-04-05T13:55:28.869Z,25.11
2023-04-05T13:57:55.447Z,25.75
2023-04-05T14:00:22.338Z,25.31
2023-04-05T14:02:51.797Z,25.65
2023-04-05T14:05:18.614Z,26.83
2023-04-05T14:07:45.570Z,26.20
2023-04-05T14:10:12.356Z,25.06
2023-04-05T14:12:39.410Z,26.11
2023-04-05T14:15:06.700Z,24.90
2023-04-05T14:17:33.317Z,24.68
2023-04-05T14:19:59.919Z,25.17
2023-04-05T14:22:26.632Z,25.35
2023-04-05T14:24:53.313Z,25.20
2023-04-05T14:27:26.425Z,25.38
2023-04-05T14:30:05.713Z,26.30
2023-04-05T14:32:33.753Z,25.37
2023-04-05T14:35:00.814Z,25.50
2023-04-05T14:37:27.508Z,25.22
2023-04-05T14:39:57.328Z,25.18
2023-04-05T14:42:34.062Z,25.37
2023-04-05T14:45:08.783Z,25.29
2023-04-05T14:47:35.852Z,25.49
2023-04-05T14:50:02.520Z,25.06
2023-04-05T14:52:29.877Z,24.74
2023-04-05T14:54:56.450Z,26.64
2023-04-05T14:57:23.059Z,25.71
2023-04-05T14:59:49.661Z,25.34
2023-04-05T15:02:16.758Z,25.36
2023-04-05T15:04:43.858Z,25.39
2023-04-05T15:07:10.632Z,26.92
2023-04-05T15:09:37.252Z,27.28
2023-04-05T15:12:04.153Z,26.41
2023-04-05T15:14:32.507Z,27.00
2023-04-05T15:16:59.418Z,26.78
2023-04-05T15:19:27.416Z,27.91
2023-04-05T15:21:54.104Z,26.28
2023-04-05T15:24:20.753Z,26.48
2023-04-05T15:26:47.521Z,26.22
2023-04-05T15:29:14.159Z,26.54
2023-04-05T15:31:41.845Z,26.21
2023-04-05T15:34:08.623Z,25.99
2023-04-05T15:36:36.095Z,25.40
2023-04-05T15:39:05.017Z,25.57
2023-04-05T15:41:34.333Z,25.65
2023-04-05T15:44:01.389Z,26.58
2023-04-05T15:46:29.191Z,26.22
2023-04-05T15:48:56.196Z,25.56
2023-04-05T15:51:23.021Z,25.68
2023-04-05T15:53:49.674Z,25.98
2023-04-05T15:56:16.329Z,25.81
2023-04-05T15:58:42.996Z,26.31
2023-04-05T16:01:09.766Z,26.52
2023-04-05T16:03:36.623Z,26.76
2023-04-05T16:06:03.502Z,26.11
2023-04-05T16:08:30.393Z,26.50
2023-04-05T16:10:58.306Z,26.77
2023-04-05T16:13:25.076Z,27.47
2023-04-05T16:15:51.762Z,26.71
2023-04-05T16:18:24.850Z,26.45
2023-04-05T16:20:51.346Z,27.03
2023-04-05T16:23:17.948Z,27.27
2023-04-05T16:25:44.654Z,28.24
2023-04-05T16:28:11.242Z,26.75
2023-04-05T16:30:37.877Z,25.75
2023-04-05T16:33:07.745Z,27.11
2023-04-05T16:35:34.436Z,27.25
2023-04-05T16:38:02.609Z,27.86
2023-04-05T16:40:29.201Z,27.02
2023-04-05T16:42:55.805Z,26.87
2023-04-05T16:45:22.372Z,27.61
2023-04-05T16:47:49.101Z,27.85
2023-04-05T16:50:15.809Z,28.83
2023-04-05T16:52:42.472Z,27.16
2023-04-05T16:55:10.393Z,27.16
2023-04-05T16:57:36.981Z,29.21
2023-04-05T17:00:05.772Z,30.13
2023-04-05T17:02:32.492Z,28.09
2023-04-05T17:04:59.132Z,27.80
2023-04-05T17:07:25.809Z,27.90
2023-04-05T17:09:52.924Z,29.44
2023-04-05T17:12:20.112Z,31.11
2023-04-05T17:14:46.712Z,31.28
2023-04-05T17:17:13.392Z,31.36
2023-04-05T17:19:39.997Z,31.75
2023-04-05T17:22:06.657Z,31.74
2023-04-05T17:24:34.741Z,32.40
2023-04-05T17:27:01.569Z,32.59
2023-04-05T17:29:28.237Z,32.98
2023-04-05T17:31:54.877Z,33.14
2023-04-05T17:34:21.442Z,33.26
2023-04-05T17:36:48.096Z,34.08
2023-04-05T17:39:17.633Z,34.02
2023-04-05T17:41:46.252Z,34.66
2023-04-05T17:44:13.063Z,33.62
2023-04-05T17:46:44.649Z,34.00
2023-04-05T17:49:15.379Z,34.80
2023-04-05T17:51:42.267Z,34.47
2023-04-05T17:54:08.978Z,34.22
2023-04-05T17:56:36.070Z,34.81
2023-04-05T17:59:04.111Z,35.13
2023-04-05T18:01:31.285Z,35.06
2023-04-05T18:03:59.313Z,35.78
2023-04-05T18:06:26.430Z,36.24
2023-04-05T18:08:53.088Z,37.91
2023-04-05T18:11:19.753Z,38.12
2023-04-05T18:13:47.507Z,38.59
2023-04-05T18:16:14.134Z,38.74
2023-04-05T18:18:41.094Z,39.12
2023-04-05T18:21:10.059Z,39.40
2023-04-05T18:23:36.854Z,38.67
2023-04-05T18:26:07.811Z,37.98
2023-04-05T18:28:34.415Z,39.20
2023-04-05T18:31:01.499Z,39.21
2023-04-05T18:33:28.057Z,39.35
2023-04-05T18:35:54.686Z,39.77
2023-04-05T18:38:21.859Z,40.15
2023-04-05T18:40:48.729Z,40.17
2023-04-05T18:43:15.345Z,40.75
2023-04-05T18:45:42.002Z,40.96
2023-04-05T18:48:08.714Z,40.09
2023-04-05T18:50:36.060Z,40.70
2023-04-05T18:53:02.661Z,40.05
2023-04-05T18:55:29.257Z,40.69
2023-04-05T18:57:56.044Z,40.89
2023-04-05T19:00:22.628Z,40.86
2023-04-05T19:02:49.260Z,41.69
2023-04-05T19:05:15.981Z,42.04
2023-04-05T19:07:42.587Z,42.32
2023-04-05T19:10:09.808Z,42.04
2023-04-05T19:12:36.420Z,41.46
2023-04-05T19:15:03.370Z,41.54
2023-04-05T19:17:31.219Z,41.50
2023-04-05T19:19:57.802Z,42.45
2023-04-05T19:22:24.360Z,42.22
2023-04-05T19:24:50.969Z,42.06
2023-04-05T19:27:17.516Z,41.89
2023-04-05T19:29:44.104Z,41.34
2023-04-05T19:32:11.078Z,41.22
2023-04-05T19:34:38.914Z,40.88
2023-04-05T19:37:36.648Z,40.11
2023-04-05T19:40:37.573Z,39.28
2023-04-05T19:43:04.846Z,36.60
2023-04-05T19:45:32.567Z,37.20
2023-04-05T19:48:01.272Z,36.37
2023-04-05T19:50:58.827Z,35.54
2023-04-05T19:53:48.351Z,34.99
2023-04-05T19:56:23.954Z,35.18
2023-04-05T19:58:56.882Z,35.04
2023-04-05T20:01:35.537Z,34.99
2023-04-05T20:04:13.260Z,34.66
2023-04-05T20:06:54.031Z,34.52
2023-04-05T20:09:23.668Z,34.54
2023-04-05T20:11:51.991Z,35.58
2023-04-05T20:14:24.777Z,36.56
2023-04-05T20:17:19.560Z,36.61
2023-04-05T20:20:17.266Z,35.88
2023-04-05T20:22:43.864Z,36.42
2023-04-05T20:25:43.959Z,36.37
2023-04-05T20:28:25.684Z,37.76
2023-04-05T20:30:53.314Z,36.58
2023-04-05T20:33:41.730Z,38.44
2023-04-05T20:36:21.682Z,38.92
2023-04-05T20:38:49.542Z,36.94
2023-04-05T20:41:18.688Z,37.42
2023-04-05T20:43:46.335Z,37.50
2023-04-05T20:46:22.204Z,36.19
2023-04-05T20:49:07.849Z,37.44
2023-04-05T20:51:39.304Z,37.37
2023-04-05T20:54:07.616Z,37.35
2023-04-05T20:56:41.018Z,37.88
2023-04-05T20:59:08.185Z,37.30
2023-04-05T21:01:37.780Z,37.11
2023-04-05T21:04:05.742Z,37.22
2023-04-05T21:06:34.208Z,36.77
2023-04-05T21:09:01.209Z,37.65
2023-04-05T21:11:27.845Z,36.66
2023-04-05T21:13:54.513Z,37.07
2023-04-05T21:16:21.204Z,39.82
2023-04-05T21:18:47.900Z,37.00
2023-04-05T21:21:14.464Z,37.06
2023-04-05T21:23:41.517Z,37.20
2023-04-05T21:26:08.089Z,38.16
2023-04-05T21:28:34.719Z,37.22
2023-04-05T21:31:27.015Z,36.55
2023-04-05T21:34:17.544Z,37.50
2023-04-05T21:36:44.140Z,38.68
2023-04-05T21:39:10.978Z,38.62
2023-04-05T21:41:40.407Z,37.25
2023-04-05T21:44:06.971Z,36.97
2023-04-05T21:46:33.624Z,36.80
2023-04-05T21:49:00.344Z,37.02
2023-04-05T22:04:42.967Z,38.65
2023-04-05T22:07:09.642Z,39.32
2023-04-05T22:09:36.536Z,40.09
2023-04-05T22:14:58.556Z,39.67
2023-04-05T22:17:25.298Z,38.81
2023-04-05T22:19:51.944Z,40.37
2023-04-05T22:22:20.086Z,39.41
2023-04-05T22:24:47.417Z,39.05
2023-04-05T22:27:14.019Z,38.49
2023-04-05T22:29:40.824Z,39.53
2023-04-05T22:32:07.704Z,40.54
2023-04-05T22:34:58.554Z,40.42
2023-04-05T22:37:49.161Z,39.93
2023-04-05T22:40:26.955Z,38.19
2023-04-05T22:42:54.306Z,40.11
2023-04-05T22:45:21.151Z,39.68
2023-04-05T22:47:47.832Z,40.89
2023-04-05T22:50:19.694Z,43.72
2023-04-05T22:52:46.452Z,40.85
2023-04-05T22:55:13.163Z,39.50
2023-04-05T22:57:42.219Z,39.97
2023-04-05T23:00:09.258Z,39.12
2023-04-05T23:02:35.951Z,39.11
2023-04-05T23:05:22.521Z,40.26
2023-04-05T23:07:49.110Z,40.79
2023-04-05T23:10:15.896Z,41.08
2023-04-05T23:12:43.468Z,42.19
2023-04-05T23:15:32.051Z,42.07
2023-04-05T23:18:23.273Z,42.42
2023-04-05T23:20:50.139Z,42.31
2023-04-05T23:23:16.745Z,42.34
2023-04-05T23:25:43.341Z,42.74
2023-04-05T23:28:09.924Z,43.65
2023-04-05T23:30:36.532Z,42.12
2023-04-05T23:33:03.179Z,42.11
2023-04-05T23:35:29.930Z,42.82
2023-04-05T23:37:59.971Z,43.00
2023-04-05T23:40:26.655Z,44.25
2023-04-05T23:42:53.322Z,43.57
2023-04-05T23:45:51.796Z,43.75
2023-04-05T23:48:43.412Z,44.19
2023-04-05T23:51:10.049Z,44.15
2023-04-05T23:53:36.811Z,45.27
2023-04-05T23:56:03.606Z,45.30
2023-04-05T23:58:30.336Z,46.12
